Time;durP1;ratioP1;P1;durP2;ratioP2;P2;SDS_P1;SDS_P2;PMS_P1;PMS_P2;Temp;Humidity;BMP_temperature;BMP_pressure;BME280_temperature;BME280_humidity;BME280_pressure;Samples;Min_cycle;Max_cycle;Signal;HPM_P1;HPM_P2
2021/01/05 00:01:30;;;;;;;;;;;;;;;15.97;56.61;100224.91;4894418;29;956;-69
2021/01/05 00:03:56;;;;;;;;;;;;;;;15.97;56.70;100229.28;4894523;29;1310;-69
2021/01/05 00:06:22;;;;;;;;;;;;;;;15.94;56.62;100224.22;4894635;29;1086;-70
2021/01/05 00:08:50;;;;;;;;;;;;;;;15.92;56.38;100226.09;4894388;29;1902;-69
2021/01/05 00:11:16;;;;;;;;;;;;;;;15.92;56.33;100228.72;4894631;29;824;-70
2021/01/05 00:13:43;;;;;;;;;;;;;;;15.91;56.68;100229.63;4894341;29;1237;-70
2021/01/05 00:16:10;;;;;;;;;;;;;;;15.88;56.25;100229.78;4877758;29;1282;-70
2021/01/05 00:18:36;;;;;;;;;;;;;;;15.89;56.59;100234.97;4893233;29;1266;-68
2021/01/05 00:21:02;;;;;;;;;;;;;;;15.92;56.69;100233.97;4894970;29;902;-69
2021/01/05 00:23:28;;;;;;;;;;;;;;;15.83;56.11;100230.03;4893169;29;1238;-68
2021/01/05 00:25:55;;;;;;;;;;;;;;;15.88;56.26;100233.28;4894706;29;1225;-69
2021/01/05 00:28:21;;;;;;;;;;;;;;;15.88;56.56;100232.41;4877558;29;1907;-69
2021/01/05 00:30:47;;;;;;;;;;;;;;;15.84;56.39;100224.69;4894898;29;1252;-69
2021/01/05 00:33:13;;;;;;;;;;;;;;;15.92;55.84;100226.09;4893059;29;1254;-68
2021/01/05 00:35:40;;;;;;;;;;;;;;;15.89;55.84;100229.72;4862067;29;1178;-68
2021/01/05 00:38:07;;;;;;;;;;;;;;;15.84;56.40;100229.94;4894411;29;1235;-68
2021/01/05 00:40:33;;;;;;;;;;;;;;;15.81;56.21;100229.25;4894674;29;1088;-69
2021/01/05 00:42:59;;;;;;;;;;;;;;;15.78;56.41;100218.91;4877399;29;1494;-69
2021/01/05 00:45:27;;;;;;;;;;;;;;;15.79;56.66;100215.38;4894538;29;873;-68
2021/01/05 00:47:54;;;;;;;;;;;;;;;15.74;56.67;100214.78;4877069;29;1907;-69
2021/01/05 00:50:21;;;;;;;;;;;;;;;15.75;56.25;100214.69;4893898;29;1117;-69
2021/01/05 00:52:47;;;;;;;;;;;;;;;15.79;56.46;100218.84;4893671;29;1227;-69
2021/01/05 00:55:13;;;;;;;;;;;;;;;15.76;56.57;100219.00;4894229;29;1152;-68
2021/01/05 00:57:40;;;;;;;;;;;;;;;15.74;56.67;100218.25;4893762;29;1222;-69
2021/01/05 01:00:09;;;;;;;;;;;;;;;15.72;56.16;100214.84;4893915;29;1050;-69
2021/01/05 01:02:35;;;;;;;;;;;;;;;15.69;56.66;100220.25;4876240;29;1349;-69
2021/01/05 01:05:02;;;;;;;;;;;;;;;15.69;56.51;100224.66;4893614;29;933;-70
2021/01/05 01:07:29;;;;;;;;;;;;;;;15.68;56.01;100226.47;4893713;29;1982;-68
2021/01/05 01:09:55;;;;;;;;;;;;;;;15.68;56.15;100226.47;4892608;29;1091;-69
2021/01/05 01:12:23;;;;;;;;;;;;;;;15.68;56.10;100222.97;4876810;29;1242;-69
2021/01/05 01:14:50;;;;;;;;;;;;;;;15.71;56.68;100218.41;4861391;29;1326;-69
2021/01/05 01:17:18;;;;;;;;;;;;;;;15.67;56.58;100216.88;4893527;29;1297;-68
2021/01/05 01:19:45;;;;;;;;;;;;;;;15.66;56.57;100220.41;4893814;29;1203;-69
2021/01/05 01:22:11;;;;;;;;;;;;;;;15.65;56.57;100221.38;4893611;29;1289;-69
2021/01/05 01:24:37;;;;;;;;;;;;;;;15.59;56.44;100213.81;4876900;29;1076;-68
2021/01/05 01:27:17;;;;;;;;;;;;;;;15.66;56.91;100220.41;4893516;29;1899;-68
2021/01/05 01:29:43;;;;;;;;;;;;;;;15.59;56.78;100224.31;4893885;29;907;-69
2021/01/05 01:32:09;;;;;;;;;;;;;;;15.58;56.40;100224.38;4893431;29;1223;-69
2021/01/05 01:34:36;;;;;;;;;;;;;;;15.57;56.09;100230.53;4893671;29;1082;-69
2021/01/05 01:37:07;;;;;;;;;;;;;;;15.56;56.27;100234.97;4893695;29;1321;-70
2021/01/05 01:39:34;;;;;;;;;;;;;;;15.53;56.44;100224.63;4893679;29;1140;-70
2021/01/05 01:42:02;;;;;;;;;;;;;;;15.54;56.82;100222.81;4893739;29;1322;-68
2021/01/05 01:44:31;;;;;;;;;;;;;;;15.58;56.64;100227.00;4861190;29;1439;-69
2021/01/05 01:47:05;;;;;;;;;;;;;;;15.50;56.31;100218.69;4877183;29;1186;-69
2021/01/05 01:49:32;;;;;;;;;;;;;;;15.49;56.30;100222.22;4876244;29;1172;-69
2021/01/05 01:51:58;;;;;;;;;;;;;;;15.58;56.75;100224.38;4893199;29;1171;-69
2021/01/05 01:54:27;;;;;;;;;;;;;;;15.53;56.03;100224.63;4876464;29;1207;-69
2021/01/05 01:56:57;;;;;;;;;;;;;;;15.51;56.75;100226.47;4893272;29;1226;-67
2021/01/05 01:59:36;;;;;;;;;;;;;;;15.53;56.27;100229.88;4892026;29;1043;-69
2021/01/05 02:02:10;;;;;;;;;;;;;;;15.55;56.47;100243.75;4894162;29;1286;-68
2021/01/05 02:04:45;;;;;;;;;;;;;;;15.53;56.21;100240.38;4894983;29;956;-68
2021/01/05 02:07:14;;;;;;;;;;;;;;;15.47;55.83;100240.66;4879702;29;1915;-68
2021/01/05 02:09:43;;;;;;;;;;;;;;;15.50;56.76;100235.28;4879683;29;1128;-69
2021/01/05 02:12:21;;;;;;;;;;;;;;;15.41;56.39;100243.56;4896798;29;1183;-69
2021/01/05 02:14:54;;;;;;;;;;;;;;;15.45;55.76;100239.88;4895490;29;1163;-70
2021/01/05 02:17:20;;;;;;;;;;;;;;;15.46;56.45;100233.69;4879410;29;1234;-69
2021/01/05 02:19:52;;;;;;;;;;;;;;;15.38;56.37;100230.59;4896744;29;1050;-68
2021/01/05 02:22:32;;;;;;;;;;;;;;;15.42;56.21;100229.53;4895080;29;1389;-70
2021/01/05 02:25:14;;;;;;;;;;;;;;;15.48;56.50;100221.38;4896579;29;1018;-69
2021/01/05 02:27:53;;;;;;;;;;;;;;;15.44;56.15;100224.22;4896422;29;1915;-68
2021/01/05 02:30:23;;;;;;;;;;;;;;;15.39;56.57;100221.81;4896455;29;1148;-69
2021/01/05 02:32:55;;;;;;;;;;;;;;;15.39;56.74;100221.81;4879279;29;1234;-69
2021/01/05 02:35:39;;;;;;;;;;;;;;;15.37;55.92;100218.41;4894836;29;952;-69
2021/01/05 02:38:17;;;;;;;;;;;;;;;15.35;56.85;100229.94;4879451;29;1274;-69
2021/01/05 02:40:49;;;;;;;;;;;;;;;15.42;56.91;100229.53;4896741;29;1171;-69
2021/01/05 02:43:19;;;;;;;;;;;;;;;15.38;56.20;100225.34;4894889;29;1577;-68
2021/01/05 02:45:48;;;;;;;;;;;;;;;15.33;56.07;100228.22;4896646;29;941;-68
2021/01/05 02:48:23;;;;;;;;;;;;;;;15.38;56.60;100220.09;4878995;29;1907;-69
2021/01/05 02:51:25;;;;;;;;;;;;;;;15.35;56.54;100209.75;4879135;29;1365;-69
2021/01/05 02:53:51;;;;;;;;;;;;;;;15.29;56.70;100204.81;4874302;29;1247;-69
2021/01/05 02:56:21;;;;;;;;;;;;;;;15.31;56.49;100192.50;4891524;29;1096;-68
2021/01/05 02:58:53;;;;;;;;;;;;;;;15.33;56.54;100190.63;4895803;29;1206;-68
2021/01/05 03:01:45;;;;;;;;;;;;;;;15.30;56.25;100193.41;4895710;29;786;-69
2021/01/05 03:04:12;;;;;;;;;;;;;;;15.31;56.08;100189.88;4894260;29;1595;-69
2021/01/05 03:06:58;;;;;;;;;;;;;;;15.33;56.28;100188.84;4863521;29;1333;-69
2021/01/05 03:09:40;;;;;;;;;;;;;;;15.29;55.92;100182.06;4894273;29;1915;-69
2021/01/05 03:12:16;;;;;;;;;;;;;;;15.28;56.27;100184.78;4878122;29;1374;-69
2021/01/05 03:14:58;;;;;;;;;;;;;;;15.29;56.13;100187.31;4895823;29;910;-69
2021/01/05 03:17:30;;;;;;;;;;;;;;;15.25;56.14;100180.53;4895343;29;1281;-69
2021/01/05 03:20:07;;;;;;;;;;;;;;;15.18;56.14;100171.28;4894301;29;928;-69
2021/01/05 03:22:40;;;;;;;;;;;;;;;15.24;56.50;100173.59;4895526;29;1376;-68
2021/01/05 03:25:07;;;;;;;;;;;;;;;15.24;56.73;100177.97;4895404;29;1503;-70
2021/01/05 03:27:33;;;;;;;;;;;;;;;15.26;56.43;100168.25;4893967;29;1911;-68
2021/01/05 03:30:02;;;;;;;;;;;;;;;15.26;55.80;100169.09;4895444;29;1045;-70
2021/01/05 03:32:29;;;;;;;;;;;;;;;15.32;56.08;100170.56;4895309;29;1301;-66
2021/01/05 03:34:55;;;;;;;;;;;;;;;15.26;56.27;100170.88;4878192;29;1182;-68
2021/01/05 03:37:22;;;;;;;;;;;;;;;15.25;56.18;100171.81;4895119;29;1246;-68
2021/01/05 03:39:48;;;;;;;;;;;;;;;15.18;56.50;100165.16;4878363;29;1226;-68
2021/01/05 03:42:14;;;;;;;;;;;;;;;15.16;56.61;100172.28;4893876;29;1486;-67
2021/01/05 03:44:40;;;;;;;;;;;;;;;15.19;56.13;100162.50;4895214;29;1098;-67
2021/01/05 03:47:07;;;;;;;;;;;;;;;15.26;55.98;100157.75;4878031;29;1348;-67
2021/01/05 03:49:33;;;;;;;;;;;;;;;15.23;55.74;100168.41;4895092;29;2064;-68
2021/01/05 03:51:59;;;;;;;;;;;;;;;15.19;56.20;100172.13;4895169;29;1238;-68
2021/01/05 03:54:25;;;;;;;;;;;;;;;15.14;56.23;100176.75;4894801;29;1088;-69
2021/01/05 03:56:51;;;;;;;;;;;;;;;15.10;56.34;100172.59;4894788;29;1233;-69
2021/01/05 03:59:18;;;;;;;;;;;;;;;15.22;56.29;100172.81;4862357;29;1242;-68
2021/01/05 04:01:53;;;;;;;;;;;;;;;15.15;56.47;100165.31;4894775;29;1230;-69
2021/01/05 04:04:19;;;;;;;;;;;;;;;15.13;56.28;100161.94;4894189;29;1131;-68
2021/01/05 04:06:46;;;;;;;;;;;;;;;15.07;56.19;100170.13;4894524;29;1187;-69
2021/01/05 04:09:13;;;;;;;;;;;;;;;15.11;56.03;100174.28;4894441;29;1919;-70
2021/01/05 04:11:39;;;;;;;;;;;;;;;15.10;55.95;100177.84;4894574;29;1366;-71
2021/01/05 04:14:05;;;;;;;;;;;;;;;15.11;56.67;100171.66;4893081;29;995;-70
2021/01/05 04:16:32;;;;;;;;;;;;;;;15.12;56.59;100181.22;4877503;29;1221;-70
2021/01/05 04:18:59;;;;;;;;;;;;;;;15.15;56.51;100188.94;4894750;29;1349;-70
2021/01/05 04:21:26;;;;;;;;;;;;;;;15.11;55.89;100179.50;4894457;29;1213;-70
2021/01/05 04:23:52;;;;;;;;;;;;;;;15.06;56.02;100181.53;4876828;29;1349;-70
2021/01/05 04:26:18;;;;;;;;;;;;;;;15.06;56.07;100171.91;4894359;29;1137;-70
2021/01/05 04:28:45;;;;;;;;;;;;;;;15.01;56.42;100173.06;4894242;29;1995;-70
2021/01/05 04:31:11;;;;;;;;;;;;;;;15.00;56.43;100172.22;4894400;29;1148;-69
2021/01/05 04:33:38;;;;;;;;;;;;;;;15.09;56.33;100166.50;4892783;29;1211;-70
2021/01/05 04:36:04;;;;;;;;;;;;;;;15.06;56.47;100174.53;4894265;29;1046;-69
2021/01/05 04:38:31;;;;;;;;;;;;;;;15.10;56.12;100168.19;4894220;29;1215;-69
2021/01/05 04:40:57;;;;;;;;;;;;;;;15.11;55.87;100169.88;4894034;29;1057;-69
2021/01/05 04:43:35;;;;;;;;;;;;;;;15.03;56.24;100171.19;4877187;29;1613;-69
2021/01/05 04:46:13;;;;;;;;;;;;;;;15.03;56.05;100172.06;4894019;29;1050;-69
2021/01/05 04:48:40;;;;;;;;;;;;;;;15.07;56.27;100165.75;4893789;29;1911;-70
2021/01/05 04:51:20;;;;;;;;;;;;;;;15.00;56.06;100172.22;4877223;29;1240;-70
2021/01/05 04:53:50;;;;;;;;;;;;;;;15.01;56.31;100173.06;4893886;29;1259;-70
2021/01/05 04:56:17;;;;;;;;;;;;;;;15.03;55.77;100172.06;4893747;29;1019;-70
2021/01/05 04:58:50;;;;;;;;;;;;;;;15.04;56.22;100178.16;4892279;29;1317;-71
2021/01/05 05:01:19;;;;;;;;;;;;;;;14.91;56.05;100177.91;4892534;29;1060;-70
2021/01/05 05:03:54;;;;;;;;;;;;;;;14.98;56.24;100184.56;4893823;29;1211;-70
2021/01/05 05:06:29;;;;;;;;;;;;;;;14.96;55.73;100185.53;4893818;29;899;-69
2021/01/05 05:08:56;;;;;;;;;;;;;;;14.90;56.01;100185.84;4893891;29;1918;-67
2021/01/05 05:11:24;;;;;;;;;;;;;;;14.94;56.04;100184.78;4892518;29;1072;-67
2021/01/05 05:13:51;;;;;;;;;;;;;;;14.93;56.46;100185.69;4894088;29;1324;-68
2021/01/05 05:16:35;;;;;;;;;;;;;;;14.90;56.01;100191.09;4893946;29;1052;-69
2021/01/05 05:19:05;;;;;;;;;;;;;;;14.92;55.60;100184.00;4893937;29;803;-69
2021/01/05 05:21:39;;;;;;;;;;;;;;;14.91;55.86;100195.41;4894075;29;1058;-67
2021/01/05 05:24:11;;;;;;;;;;;;;;;14.87;56.21;100199.97;4894077;29;1128;-70
2021/01/05 05:26:40;;;;;;;;;;;;;;;14.94;55.68;100203.13;4893995;29;1289;-70
2021/01/05 05:29:22;;;;;;;;;;;;;;;14.90;55.89;100197.19;4876723;29;1910;-69
2021/01/05 05:31:49;;;;;;;;;;;;;;;14.92;56.16;100202.38;4893915;29;1369;-69
2021/01/05 05:34:21;;;;;;;;;;;;;;;14.88;55.91;100206.91;4876586;29;1324;-69
2021/01/05 05:37:07;;;;;;;;;;;;;;;14.90;55.88;100197.19;4896980;29;1378;-70
2021/01/05 05:39:52;;;;;;;;;;;;;;;14.84;55.75;100188.75;4897388;29;773;-70
2021/01/05 05:42:35;;;;;;;;;;;;;;;14.85;55.82;100190.47;4897122;29;1390;-69
2021/01/05 05:45:20;;;;;;;;;;;;;;;14.87;56.27;100199.09;4897340;29;1086;-70
2021/01/05 05:47:46;;;;;;;;;;;;;;;14.88;55.48;100198.19;4880435;29;1972;-69
2021/01/05 05:50:22;;;;;;;;;;;;;;;14.84;55.78;100196.63;4896165;29;1056;-69
2021/01/05 05:52:56;;;;;;;;;;;;;;;14.84;55.95;100204.50;4880734;29;1350;-69
2021/01/05 05:55:23;;;;;;;;;;;;;;;14.81;55.89;100196.78;4895981;29;797;-68
2021/01/05 05:57:50;;;;;;;;;;;;;;;14.81;56.40;100199.41;4897482;29;1319;-69
2021/01/05 06:00:21;;;;;;;;;;;;;;;14.88;56.09;100206.91;4897115;29;852;-68
2021/01/05 06:02:47;;;;;;;;;;;;;;;14.86;55.92;100202.66;4897770;29;1262;-68
2021/01/05 06:05:19;;;;;;;;;;;;;;;14.80;56.26;100206.44;4880343;29;1005;-68
2021/01/05 06:07:45;;;;;;;;;;;;;;;14.82;56.74;100216.84;4897424;29;1986;-68
2021/01/05 06:10:12;;;;;;;;;;;;;;;14.83;55.88;100214.16;4896981;29;886;-69
2021/01/05 06:12:38;;;;;;;;;;;;;;;14.80;56.38;100221.31;4880124;29;1313;-68
2021/01/05 06:15:04;;;;;;;;;;;;;;;14.86;56.02;100224.50;4896335;29;1550;-67
2021/01/05 06:17:32;;;;;;;;;;;;;;;14.81;56.00;100226.47;4897092;29;1372;-68
2021/01/05 06:19:58;;;;;;;;;;;;;;;14.88;55.90;100227.88;4893802;29;1582;-69
2021/01/05 06:22:25;;;;;;;;;;;;;;;14.80;56.33;100222.19;4880247;29;1416;-68
2021/01/05 06:24:52;;;;;;;;;;;;;;;14.69;55.70;100227.94;4865167;29;1171;-69
2021/01/05 06:27:18;;;;;;;;;;;;;;;14.77;55.96;100227.56;4896685;29;1273;-69
2021/01/05 06:29:44;;;;;;;;;;;;;;;14.72;55.87;100230.41;4879310;29;1992;-68
2021/01/05 06:32:10;;;;;;;;;;;;;;;14.67;55.84;100229.78;4896644;29;1272;-68
2021/01/05 06:34:36;;;;;;;;;;;;;;;14.71;55.99;100231.31;4879642;29;1499;-68
2021/01/05 06:37:02;;;;;;;;;;;;;;;14.74;56.13;100232.97;4879439;29;1258;-66
2021/01/05 06:39:29;;;;;;;;;;;;;;;14.70;55.70;100237.50;4879744;29;797;-67
2021/01/05 06:41:56;;;;;;;;;;;;;;;14.84;56.05;100238.59;4894743;29;1362;-68
2021/01/05 06:44:22;;;;;;;;;;;;;;;14.74;56.04;100239.03;4896416;29;1582;-68
2021/01/05 06:46:54;;;;;;;;;;;;;;;14.83;55.60;100244.78;4878717;29;1226;-68
2021/01/05 06:49:39;;;;;;;;;;;;;;;14.85;56.12;100251.63;4896081;29;1976;-69
2021/01/05 06:52:05;;;;;;;;;;;;;;;14.82;56.26;100246.53;4879388;29;1361;-68
2021/01/05 06:54:32;;;;;;;;;;;;;;;14.85;56.21;100254.25;4879228;29;1113;-68
2021/01/05 06:56:59;;;;;;;;;;;;;;;14.86;55.99;100257.75;4895783;29;1360;-68
2021/01/05 06:59:26;;;;;;;;;;;;;;;14.84;55.92;100256.94;4895893;29;785;-67
2021/01/05 07:01:57;;;;;;;;;;;;;;;14.80;55.58;100258.88;4879057;29;1376;-70
2021/01/05 07:04:23;;;;;;;;;;;;;;;14.81;56.24;100262.34;4895904;29;757;-69
2021/01/05 07:06:50;;;;;;;;;;;;;;;14.78;56.19;100265.97;4895684;29;1266;-69
2021/01/05 07:09:17;;;;;;;;;;;;;;;14.78;56.33;100271.19;4896013;29;1919;-69
2021/01/05 07:11:44;;;;;;;;;;;;;;;14.70;56.70;100258.47;4878926;29;1352;-69
2021/01/05 07:14:11;;;;;;;;;;;;;;;14.78;56.14;100269.44;4896108;29;717;-69
2021/01/05 07:16:38;;;;;;;;;;;;;;;14.81;56.46;100268.44;4895710;29;1282;-69
2021/01/05 07:19:04;;;;;;;;;;;;;;;14.75;56.63;100272.19;4894220;29;923;-69
2021/01/05 07:21:30;;;;;;;;;;;;;;;14.78;56.02;100273.81;4895633;29;1078;-70
2021/01/05 07:24:06;;;;;;;;;;;;;;;;;;;;;
2021/01/05 07:26:58;;;;;;;;;;;;;;;14.84;56.33;100275.28;4864709;29;1375;-71
2021/01/05 07:29:45;;;;;;;;;;;;;;;14.88;56.31;100276.88;4895105;29;1969;-70
2021/01/05 07:32:15;;;;;;;;;;;;;;;14.84;56.24;100285.78;4895498;29;1275;-69
2021/01/05 07:34:42;;;;;;;;;;;;;;;14.74;56.18;100278.34;4877714;29;1219;-70
2021/01/05 07:37:14;;;;;;;;;;;;;;;14.80;56.16;100285.09;4878773;23;1696;-69
2021/01/05 07:40:34;;;;;;;;;;;;;;;14.77;56.03;100287.88;4846987;29;1009;-69
2021/01/05 07:43:05;;;;;;;;;;;;;;;14.69;56.49;100298.72;4985657;23;1959;-69
2021/01/05 07:45:31;;;;;;;;;;;;;;;14.69;56.50;100300.47;4913257;29;1113;-70
2021/01/05 07:47:57;;;;;;;;;;;;;;;14.74;55.91;100303.75;4913654;29;2044;-70
2021/01/05 07:50:25;;;;;;;;;;;;;;;14.70;56.05;100305.66;4913860;29;764;-70
2021/01/05 07:52:54;;;;;;;;;;;;;;;14.77;55.65;100301.81;4912664;29;1246;-71
2021/01/05 07:55:22;;;;;;;;;;;;;;;14.78;55.55;100305.28;4913428;29;978;-70
2021/01/05 07:57:49;;;;;;;;;;;;;;;14.81;55.91;100306.91;4911994;29;1368;-68
2021/01/05 08:00:17;;;;;;;;;;;;;;;14.72;56.14;100303.81;4927785;29;1296;-69
2021/01/05 08:02:43;;;;;;;;;;;;;;;14.71;56.24;100303.91;4913603;29;1245;-69
2021/01/05 08:05:13;;;;;;;;;;;;;;;14.74;56.13;100307.19;4912132;29;796;-71
2021/01/05 08:07:40;;;;;;;;;;;;;;;14.71;55.97;100312.59;4913143;29;1983;-70
2021/01/05 08:10:06;;;;;;;;;;;;;;;14.72;55.86;100314.31;4911970;29;803;-71
2021/01/05 08:12:33;;;;;;;;;;;;;;;14.77;55.84;100314.91;4913109;29;1202;-71
2021/01/05 08:14:59;;;;;;;;;;;;;;;14.75;55.95;100314.16;4912987;29;784;-71
2021/01/05 08:17:25;;;;;;;;;;;;;;;14.72;55.67;100319.53;4911615;29;1352;-71
2021/01/05 08:19:51;;;;;;;;;;;;;;;14.74;55.76;100317.69;4913025;29;777;-71
2021/01/05 08:22:18;;;;;;;;;;;;;;;14.71;55.62;100320.44;4913244;29;1230;-71
2021/01/05 08:24:44;;;;;;;;;;;;;;;14.69;55.45;100324.06;4913113;29;761;-71
2021/01/05 08:27:12;;;;;;;;;;;;;;;14.66;56.09;100332.94;4913257;29;1222;-70
2021/01/05 08:29:38;;;;;;;;;;;;;;;14.70;56.10;100334.50;4911695;29;2001;-70
2021/01/05 08:32:05;;;;;;;;;;;;;;;14.70;56.03;100329.25;4913058;29;1351;-70
2021/01/05 08:34:31;;;;;;;;;;;;;;;14.71;56.24;100333.56;4912977;29;832;-68
2021/01/05 08:37:01;;;;;;;;;;;;;;;14.67;56.41;100341.66;4911642;29;1323;-70
2021/01/05 08:39:27;;;;;;;;;;;;;;;14.71;56.21;100330.94;4927155;29;864;-70
2021/01/05 08:41:55;;;;;;;;;;;;;;;14.64;55.97;100332.16;4913033;29;1290;-69
2021/01/05 08:44:21;;;;;;;;;;;;;;;14.55;56.25;100342.22;4912604;29;1113;-70
2021/01/05 08:46:48;;;;;;;;;;;;;;;14.67;55.75;100346.91;4912049;29;1610;-68
2021/01/05 08:49:14;;;;;;;;;;;;;;;14.69;55.90;100351.16;4912677;29;1982;-68
2021/01/05 08:51:43;;;;;;;;;;;;;;;14.62;56.04;100344.47;4911011;29;1250;-68
2021/01/05 08:54:09;;;;;;;;;;;;;;;14.57;56.28;100351.72;4912608;29;951;-70
2021/01/05 08:56:40;;;;;;;;;;;;;;;14.54;55.95;100354.47;4910823;29;1333;-69
2021/01/05 08:59:07;;;;;;;;;;;;;;;14.69;56.20;100358.16;4912600;29;960;-70
2021/01/05 09:01:33;;;;;;;;;;;;;;;14.67;55.88;100363.50;4910572;29;1214;-71
2021/01/05 09:04:00;;;;;;;;;;;;;;;14.39;52.20;100355.16;4912605;29;1317;-69
2021/01/05 09:06:26;;;;;;;;;;;;;;;13.42;46.70;100355.88;4910450;29;1230;-70
2021/01/05 09:08:52;;;;;;;;;;;;;;;13.09;49.14;100360.69;4926563;29;1902;-69
2021/01/05 09:11:21;;;;;;;;;;;;;;;13.69;49.38;100366.03;4910487;29;740;-73
2021/01/05 09:13:47;;;;;;;;;;;;;;;13.98;51.92;100371.81;4911899;29;1338;-72
2021/01/05 09:16:20;;;;;;;;;;;;;;;14.21;51.43;100376.91;4912524;29;1193;-71
2021/01/05 09:18:46;;;;;;;;;;;;;;;14.30;51.08;100368.66;4912967;29;1317;-69
2021/01/05 09:21:12;;;;;;;;;;;;;;;14.36;50.89;100368.41;4912679;29;716;-68
2021/01/05 09:23:39;;;;;;;;;;;;;;;14.41;51.00;100366.41;4911027;29;1302;-72
2021/01/05 09:26:08;;;;;;;;;;;;;;;14.34;51.60;100372.00;4912061;29;1615;-78
2021/01/05 09:28:35;;;;;;;;;;;;;;;14.46;52.08;100369.69;4911883;29;1968;-73
2021/01/05 09:31:01;;;;;;;;;;;;;;;14.55;52.38;100377.16;4899188;29;1165;-72
2021/01/05 09:33:28;;;;;;;;;;;;;;;14.42;53.25;100370.75;4910388;29;1230;-71
2021/01/05 09:35:54;;;;;;;;;;;;;;;14.53;52.54;100371.09;4899119;29;1153;-72
2021/01/05 09:38:20;;;;;;;;;;;;;;;14.89;52.83;100373.84;4892282;29;1232;-69
2021/01/05 09:40:46;;;;;;;;;;;;;;;15.20;51.78;100368.81;4901171;29;1453;-68
2021/01/05 09:43:13;;;;;;;;;;;;;;;15.27;52.31;100377.25;4908230;29;1458;-67
2021/01/05 09:45:39;;;;;;;;;;;;;;;15.41;51.97;100380.03;4908478;29;1396;-69
2021/01/05 09:48:08;;;;;;;;;;;;;;;15.62;51.56;100389.56;4902661;29;1932;-77
2021/01/05 09:50:35;;;;;;;;;;;;;;;15.80;51.85;100385.16;4910203;29;760;-71
2021/01/05 09:53:02;;;;;;;;;;;;;;;15.88;52.05;100382.97;4910977;29;1254;-70
2021/01/05 09:55:28;;;;;;;;;;;;;;;16.02;51.62;100388.38;4911031;29;816;-77
2021/01/05 09:57:55;;;;;;;;;;;;;;;16.09;51.90;100392.41;4911164;29;1309;-78
2021/01/05 10:00:21;;;;;;;;;;;;;;;16.24;51.76;100390.75;4910887;29;1221;-80
2021/01/05 10:02:48;;;;;;;;;;;;;;;16.34;51.54;100399.88;4910305;29;1298;-75
2021/01/05 10:05:15;;;;;;;;;;;;;;;16.38;51.54;100389.09;4915558;29;1126;-78
2021/01/05 10:07:42;;;;;;;;;;;;;;;16.42;51.58;100392.41;4898357;29;1230;-70
2021/01/05 10:10:14;;;;;;;;;;;;;;;16.69;51.48;100387.50;4911150;29;1917;-74
2021/01/05 10:12:40;;;;;;;;;;;;;;;16.70;51.36;100390.06;4911086;29;1246;-73
2021/01/05 10:15:07;;;;;;;;;;;;;;;16.66;51.51;100388.53;4911170;29;800;-73
2021/01/05 10:17:33;;;;;;;;;;;;;;;16.73;52.22;100392.53;4911073;29;1250;-73
2021/01/05 10:19:59;;;;;;;;;;;;;;;16.57;50.42;100394.28;4925018;29;756;-74
2021/01/05 10:22:26;;;;;;;;;;;;;;;16.40;51.29;100394.28;4911085;29;1565;-70
2021/01/05 10:24:52;;;;;;;;;;;;;;;16.42;50.93;100390.66;4912141;29;1086;-70
2021/01/05 10:27:18;;;;;;;;;;;;;;;16.46;50.77;100388.72;4912663;29;1348;-70
2021/01/05 10:29:44;;;;;;;;;;;;;;;16.46;51.07;100391.34;4913855;29;1994;-71
2021/01/05 10:32:11;;;;;;;;;;;;;;;16.42;51.13;100392.41;4913626;29;1346;-70
2021/01/05 10:34:37;;;;;;;;;;;;;;;16.44;51.37;100397.63;4913932;29;1074;-70
2021/01/05 10:37:05;;;;;;;;;;;;;;;16.44;53.34;100395.84;4913675;29;1376;-70
2021/01/05 10:39:31;;;;;;;;;;;;;;;16.44;55.47;100398.47;4913820;29;1026;-70
2021/01/05 10:41:58;;;;;;;;;;;;;;;16.43;56.09;100396.75;4913034;29;1262;-71
2021/01/05 10:44:24;;;;;;;;;;;;;;;16.42;55.48;100388.00;4913408;29;788;-70
2021/01/05 10:46:55;;;;;;;;;;;;;;;16.37;56.38;100387.41;4913076;29;1234;-70
2021/01/05 10:49:22;;;;;;;;;;;;;;;16.32;57.08;100388.59;4912952;29;1977;-70
2021/01/05 10:51:49;;;;;;;;;;;;;;;16.28;57.89;100381.78;4913736;29;1213;-70
2021/01/05 10:54:16;;;;;;;;;;;;;;;16.28;58.61;100382.66;4914114;29;772;-69
2021/01/05 10:56:44;;;;;;;;;;;;;;;16.29;59.42;100381.69;4928418;29;1222;-70
2021/01/05 10:59:13;;;;;;;;;;;;;;;16.22;59.42;100376.84;4914041;29;1044;-71
2021/01/05 11:01:40;;;;;;;;;;;;;;;16.19;59.86;100377.88;4914551;29;1250;-71
2021/01/05 11:04:06;;;;;;;;;;;;;;;16.20;59.98;100376.91;4914059;29;1404;-70
2021/01/05 11:06:36;;;;;;;;;;;;;;;16.18;59.90;100372.69;4914421;29;1201;-70
2021/01/05 11:09:02;;;;;;;;;;;;;;;16.16;59.61;100367.50;4928820;29;1902;-70
2021/01/05 11:11:29;;;;;;;;;;;;;;;16.12;59.77;100360.72;4914488;29;839;-71
2021/01/05 11:13:56;;;;;;;;;;;;;;;16.17;57.89;100365.75;4914588;29;1244;-70
2021/01/05 11:16:23;;;;;;;;;;;;;;;16.10;58.92;100353.84;4907802;29;1742;-70
2021/01/05 11:18:49;;;;;;;;;;;;;;;16.06;58.94;100355.78;4898326;29;1222;-69
2021/01/05 11:21:15;;;;;;;;;;;;;;;16.07;58.69;100361.88;4912643;29;903;-68
2021/01/05 11:23:42;;;;;;;;;;;;;;;16.09;58.75;100360.00;4903399;29;1308;-70
2021/01/05 11:26:09;;;;;;;;;;;;;;;16.07;58.90;100360.09;4894139;29;1102;-70
2021/01/05 11:28:50;;;;;;;;;;;;;;;15.94;56.89;100356.41;4924609;29;1911;-70
2021/01/05 11:31:17;;;;;;;;;;;;;;;16.17;57.61;100356.06;4931251;29;795;-69
2021/01/05 11:33:43;;;;;;;;;;;;;;;16.36;57.28;100346.28;4910919;29;1605;-70
2021/01/05 11:36:10;;;;;;;;;;;;;;;16.35;57.24;100346.38;4894045;29;1712;-69
2021/01/05 11:38:36;;;;;;;;;;;;;;;16.36;57.10;100343.66;4912367;29;1659;-69
2021/01/05 11:41:31;;;;;;;;;;;;;;;16.33;56.80;100333.31;4907034;29;1749;-69
2021/01/05 11:43:58;;;;;;;;;;;;;;;16.30;57.34;100336.09;4894712;29;1865;-69
2021/01/05 11:46:26;;;;;;;;;;;;;;;16.28;57.36;100340.59;4907474;29;2091;-69
2021/01/05 11:48:53;;;;;;;;;;;;;;;16.30;56.85;100332.59;4911726;29;1980;-68
2021/01/05 11:51:22;;;;;;;;;;;;;;;16.27;57.35;100338.03;4911805;29;753;-68
2021/01/05 11:53:49;;;;;;;;;;;;;;;16.30;56.93;100336.09;4910569;29;2192;-68
2021/01/05 11:56:23;;;;;;;;;;;;;;;16.30;56.72;100337.88;4910698;29;851;-69
2021/01/05 11:58:49;;;;;;;;;;;;;;;16.33;56.49;100335.06;4912106;29;1238;-69
2021/01/05 12:01:16;;;;;;;;;;;;;;;16.29;56.81;100330.94;4911068;29;803;-68
2021/01/05 12:03:42;;;;;;;;;;;;;;;16.27;56.70;100322.25;4913731;29;1316;-68
2021/01/05 12:06:12;;;;;;;;;;;;;;;16.33;56.41;100328.03;4913663;29;862;-69
2021/01/05 12:08:38;;;;;;;;;;;;;;;16.33;56.24;100321.94;4913808;29;1910;-69
2021/01/05 12:11:05;;;;;;;;;;;;;;;16.34;55.97;100319.25;4913546;29;1097;-68
2021/01/05 12:13:31;;;;;;;;;;;;;;;16.35;56.22;100315.66;4913408;29;1227;-68
2021/01/05 12:15:57;;;;;;;;;;;;;;;16.37;56.01;100312.97;4911585;29;1178;-69
2021/01/05 12:18:23;;;;;;;;;;;;;;;16.37;55.85;100321.69;4912928;29;1238;-68
2021/01/05 12:20:50;;;;;;;;;;;;;;;16.39;56.20;100311.09;4913510;29;792;-68
2021/01/05 12:23:16;;;;;;;;;;;;;;;16.38;55.86;100312.03;4913272;29;1309;-67
2021/01/05 12:25:42;;;;;;;;;;;;;;;16.40;55.57;100307.53;4912893;29;863;-67
2021/01/05 12:28:09;;;;;;;;;;;;;;;16.40;55.60;100308.41;4913300;29;1962;-68
2021/01/05 12:30:40;;;;;;;;;;;;;;;16.43;55.79;100302.13;4913095;29;856;-69
2021/01/05 12:33:07;;;;;;;;;;;;;;;16.41;55.76;100296.09;4913287;29;1257;-68
2021/01/05 12:35:33;;;;;;;;;;;;;;;16.42;55.41;100297.78;4913025;29;939;-69
2021/01/05 12:38:00;;;;;;;;;;;;;;;16.43;55.32;100296.84;4913487;29;1325;-68
2021/01/05 12:40:26;;;;;;;;;;;;;;;16.41;55.34;100289.03;4911983;29;819;-69
2021/01/05 12:42:52;;;;;;;;;;;;;;;16.45;55.73;100284.47;4912947;29;1307;-69
2021/01/05 12:45:19;;;;;;;;;;;;;;;16.46;55.17;100280.91;4912116;29;791;-69
2021/01/05 12:47:48;;;;;;;;;;;;;;;16.46;55.01;100275.66;4912633;29;1351;-69
2021/01/05 12:50:17;;;;;;;;;;;;;;;16.45;55.29;100273.94;4912533;29;1978;-69
2021/01/05 12:52:48;;;;;;;;;;;;;;;16.46;55.28;100280.91;4913134;29;1298;-69
2021/01/05 12:55:15;;;;;;;;;;;;;;;16.49;54.92;100274.63;4912777;29;1421;-69
2021/01/05 12:57:41;;;;;;;;;;;;;;;16.49;54.73;100275.50;4912648;29;1226;-69
2021/01/05 13:00:08;;;;;;;;;;;;;;;16.48;54.89;100275.56;4912615;29;836;-69